Time;durP1;ratioP1;P1;durP2;ratioP2;P2;SDS_P1;SDS_P2;PMS_P1;PMS_P2;Temp;Humidity;BMP_temperature;BMP_pressure;BME280_temperature;BME280_humidity;BME280_pressure;Samples;Min_cycle;Max_cycle;Signal;HPM_P1;HPM_P2
2023/06/17 00:02:08;;;;;;;10.40;5.72;;;;;;;-144.47;99.10;52677.34;5015919;28;20030;-67
2023/06/17 00:04:33;;;;;;;12.13;6.72;;;;;;;-144.47;99.37;52681.31;5009370;28;20022;-67
2023/06/17 00:07:01;;;;;;;11.32;5.88;;;;;;;-144.47;99.73;52685.28;5009249;28;20102;-68
2023/06/17 00:09:26;;;;;;;11.32;5.97;;;;;;;-144.47;99.93;52671.38;5009982;28;20057;-68
2023/06/17 00:11:54;;;;;;;10.40;5.50;;;;;;;-144.47;100.00;52683.31;5009667;28;20103;-63
2023/06/17 00:14:20;;;;;;;8.57;5.70;;;;;;;-144.47;100.00;52689.25;5009212;28;20492;-67
2023/06/17 00:16:46;;;;;;;9.90;5.75;;;;;;;-144.47;100.00;52689.25;5009841;28;20048;-68
2023/06/17 00:19:15;;;;;;;11.52;5.72;;;;;;;-144.47;100.00;52671.38;5010252;28;20034;-65
2023/06/17 00:21:41;;;;;;;;;;;;;;;-144.47;100.00;52669.41;5014020;28;20033;-67
2023/06/17 00:24:06;;;;;;;15.02;5.85;;;;;;;-144.47;100.00;52681.31;5013329;28;19917;-67
2023/06/17 00:26:32;;;;;;;12.60;5.80;;;;;;;-144.47;100.00;52661.44;5013458;28;20033;-68
2023/06/17 00:28:57;;;;;;;15.50;6.63;;;;;;;-144.47;100.00;52677.34;5013177;28;20360;-67
2023/06/17 00:31:22;;;;;;;11.27;6.18;;;;;;;-144.47;100.00;52677.34;5011499;28;20484;-65
2023/06/17 00:33:48;;;;;;;11.43;6.25;;;;;;;-144.47;100.00;52681.31;5013121;28;20018;-65
2023/06/17 00:36:13;;;;;;;9.80;6.35;;;;;;;-144.47;100.00;52681.31;5012876;28;20040;-66
2023/06/17 00:38:38;;;;;;;11.25;6.88;;;;;;;-144.47;100.00;52695.22;5013511;28;20113;-64
2023/06/17 00:41:04;;;;;;;10.82;6.25;;;;;;;-144.47;100.00;52681.31;5013636;28;20053;-69
2023/06/17 00:43:29;;;;;;;12.88;6.45;;;;;;;-144.47;100.00;52679.31;5013280;28;20059;-70
2023/06/17 00:45:55;;;;;;;14.93;6.57;;;;;;;-144.47;100.00;52695.22;5011699;28;20061;-67
2023/06/17 00:48:23;;;;;;;14.93;6.68;;;;;;;-144.47;100.00;52689.25;5011952;28;20036;-68
2023/06/17 00:50:50;;;;;;;14.75;6.80;;;;;;;-144.47;100.00;52659.47;5012577;28;20014;-67
2023/06/17 00:53:15;;;;;;;11.07;6.95;;;;;;;-144.47;100.00;52669.41;5011344;28;20036;-68
2023/06/17 00:55:41;;;;;;;12.18;7.47;;;;;;;-144.47;100.00;52661.44;5012722;28;20014;-67
2023/06/17 00:58:06;;;;;;;12.48;6.95;;;;;;;-144.47;100.00;52677.34;5011927;28;20666;-67
2023/06/17 01:00:32;;;;;;;14.75;7.07;;;;;;;-144.47;100.00;52679.31;5012651;28;20033;-67
2023/06/17 01:02:58;;;;;;;13.85;6.80;;;;;;;-144.47;100.00;52689.25;5012954;28;20112;-62
2023/06/17 01:05:24;;;;;;;10.50;6.70;;;;;;;-144.47;100.00;52703.16;5012035;28;20048;-66
2023/06/17 01:08:28;;;;;;;13.57;7.25;;;;;;;-144.47;100.00;52681.31;5012639;28;20120;-66
2023/06/17 01:11:19;;;;;;;10.18;6.57;;;;;;;-144.47;100.00;52691.25;5012877;28;20021;-66
2023/06/17 01:13:50;;;;;;;15.55;7.07;;;;;;;-144.47;100.00;52699.19;5012014;28;20255;-67
2023/06/17 01:16:16;;;;;;;12.07;7.63;;;;;;;-144.47;100.00;52677.34;5011254;28;20032;-67
2023/06/17 01:18:48;;;;;;;25.73;6.93;;;;;;;-144.47;100.00;52685.28;5012727;28;20030;-68
2023/06/17 01:21:17;;;;;;;17.00;8.43;;;;;;;-144.47;100.00;52695.22;5012514;28;20022;-67
2023/06/17 01:23:43;;;;;;;11.95;8.02;;;;;;;-144.47;100.00;52669.41;5012454;28;20109;-66
2023/06/17 01:26:08;;;;;;;10.32;7.20;;;;;;;-144.47;100.00;52669.41;5012467;28;20036;-66
2023/06/17 01:28:36;;;;;;;16.00;7.68;;;;;;;-144.47;100.00;52713.09;5013087;28;20024;-67
2023/06/17 01:31:01;;;;;;;11.95;7.35;;;;;;;-144.47;100.00;52699.19;5009944;28;20108;-66
2023/06/17 01:33:27;;;;;;;13.75;7.93;;;;;;;-144.47;100.00;52683.31;5012318;28;20544;-68
2023/06/17 01:36:01;;;;;;;16.38;9.00;;;;;;;-144.47;100.00;52675.34;5012055;28;20025;-66
2023/06/17 01:38:36;;;;;;;15.52;8.48;;;;;;;-144.47;100.00;52701.19;5012470;28;20028;-68
2023/06/17 01:41:07;;;;;;;13.45;8.43;;;;;;;-144.47;100.00;52703.16;5012611;28;20030;-69
2023/06/17 01:43:34;;;;;;;16.25;8.70;;;;;;;-144.47;100.00;52681.31;5012312;28;20125;-67
2023/06/17 01:46:01;;;;;;;16.88;7.72;;;;;;;-144.47;100.00;52673.38;5012236;28;20022;-67
2023/06/17 01:48:27;;;;;;;14.38;8.88;;;;;;;-144.47;100.00;52693.22;5011343;28;20044;-66
2023/06/17 01:50:52;;;;;;;15.32;8.75;;;;;;;-144.47;100.00;52687.28;5010402;28;20371;-68
2023/06/17 01:53:18;;;;;;;12.15;7.60;;;;;;;-144.47;100.00;52675.34;5011452;28;20022;-69
2023/06/17 01:55:43;;;;;;;16.60;8.70;;;;;;;-144.47;100.00;52669.41;5011930;28;20087;-66
2023/06/17 01:58:09;;;;;;;11.95;7.70;;;;;;;-144.47;100.00;52675.34;5011904;28;20123;-66
2023/06/17 02:00:34;;;;;;;14.75;8.48;;;;;;;-144.47;100.00;52691.25;5011775;28;20022;-62
2023/06/17 02:03:00;;;;;;;14.93;8.40;;;;;;;-144.47;100.00;52691.25;5011966;28;20029;-65
2023/06/17 02:05:25;;;;;;;13.23;8.13;;;;;;;-144.47;100.00;52725.00;5011339;28;20400;-66
2023/06/17 02:07:52;;;;;;;12.15;7.65;;;;;;;-144.47;100.00;52703.16;5012090;28;20026;-65
2023/06/17 02:10:18;;;;;;;13.73;8.82;;;;;;;-144.47;100.00;52705.16;5012055;28;20033;-67
2023/06/17 02:12:43;;;;;;;15.85;9.05;;;;;;;-144.47;100.00;52691.25;5012405;28;20096;-69
2023/06/17 02:15:10;;;;;;;17.35;9.70;;;;;;;-144.47;100.00;52689.25;5011132;28;20022;-68
2023/06/17 02:17:35;;;;;;;16.08;8.52;;;;;;;-144.47;100.00;52701.19;5011767;28;20100;-66
2023/06/17 02:20:05;;;;;;;13.23;8.32;;;;;;;-144.47;100.00;52721.03;5011418;28;20026;-65
2023/06/17 02:22:30;;;;;;;15.13;9.00;;;;;;;-144.47;100.00;52697.19;5011943;28;20032;-64
2023/06/17 02:24:56;;;;;;;14.10;9.05;;;;;;;-144.47;100.00;52719.06;5011041;28;20435;-69
2023/06/17 02:27:21;;;;;;;14.98;8.95;;;;;;;-144.47;100.00;52705.16;5011413;28;20030;-67
2023/06/17 02:29:47;;;;;;;14.88;9.27;;;;;;;-144.47;100.00;52683.31;5011611;28;20064;-67
2023/06/17 02:32:12;;;;;;;13.93;8.45;;;;;;;-144.47;100.00;52709.13;5011382;28;20104;-71
2023/06/17 02:34:37;;;;;;;14.00;8.35;;;;;;;-144.47;100.00;52701.19;5010891;28;20026;-67
2023/06/17 02:37:03;;;;;;;12.93;8.00;;;;;;;-144.47;100.00;52671.38;5011084;28;20021;-68
2023/06/17 02:39:29;;;;;;;14.48;9.25;;;;;;;-144.47;100.00;52683.31;5011164;28;20029;-68
2023/06/17 02:41:54;;;;;;;13.85;7.85;;;;;;;-144.47;100.00;52699.19;5011157;28;20030;-66
2023/06/17 02:44:19;;;;;;;13.98;8.35;;;;;;;-144.47;100.00;52691.25;5010881;28;20028;-64
2023/06/17 02:46:46;;;;;;;14.70;9.20;;;;;;;-144.47;100.00;52673.38;5010856;28;20529;-67
2023/06/17 02:49:13;;;;;;;13.57;8.73;;;;;;;-144.47;100.00;52709.13;5010716;28;20105;-67
2023/06/17 02:51:40;;;;;;;12.90;8.30;;;;;;;-144.47;100.00;52713.09;5008816;28;20048;-66
2023/06/17 02:54:05;;;;;;;12.82;7.95;;;;;;;-144.47;100.00;52685.28;5010346;28;20049;-67
2023/06/17 02:56:31;;;;;;;12.90;7.93;;;;;;;-144.47;100.00;52707.13;5009803;28;20022;-65
2023/06/17 02:58:57;;;;;;;19.30;9.20;;;;;;;-144.47;100.00;52697.19;5010810;28;20038;-67
2023/06/17 03:01:22;;;;;;;15.10;9.07;;;;;;;-144.47;100.00;52713.09;5010736;28;20503;-66
2023/06/17 03:03:48;;;;;;;15.20;8.65;;;;;;;-144.47;100.00;52695.22;5010405;28;20030;-65
2023/06/17 03:06:14;;;;;;;12.82;8.65;;;;;;;-144.47;100.00;52719.06;5010237;28;20096;-64
2023/06/17 03:08:40;;;;;;;18.15;8.95;;;;;;;-144.47;100.00;52695.22;5010873;28;20108;-67
2023/06/17 03:11:06;;;;;;;14.63;8.55;;;;;;;-144.47;100.00;52709.13;5010472;28;20083;-67
2023/06/17 03:13:32;;;;;;;12.80;9.18;;;;;;;-144.47;100.00;52721.03;5010545;28;20058;-70
2023/06/17 03:16:01;;;;;;;13.52;8.48;;;;;;;-144.47;100.00;52697.19;5010656;28;20033;-66
2023/06/17 03:18:27;;;;;;;13.05;8.77;;;;;;;-144.47;100.00;52727.00;5010691;28;20046;-68
2023/06/17 03:20:55;;;;;;;19.67;8.38;;;;;;;-144.47;100.00;52701.19;5010312;28;20132;-66
2023/06/17 03:23:21;;;;;;;13.13;8.70;;;;;;;-144.47;100.00;52721.03;5010544;28;20028;-66
2023/06/17 03:25:51;;;;;;;12.10;7.70;;;;;;;-144.47;100.00;52721.03;5010177;28;20034;-68
2023/06/17 03:28:17;;;;;;;17.13;8.07;;;;;;;-144.47;100.00;52679.31;5010502;28;20040;-68
2023/06/17 03:30:43;;;;;;;15.93;9.00;;;;;;;-144.47;100.00;52691.25;5010239;28;20022;-69
2023/06/17 03:33:09;;;;;;;18.05;8.82;;;;;;;-144.47;100.00;52713.09;5010176;28;20117;-68
2023/06/17 03:35:35;;;;;;;15.63;9.38;;;;;;;-144.47;100.00;52701.19;5008354;28;20033;-65
2023/06/17 03:38:01;;;;;;;23.38;10.13;;;;;;;-144.47;100.00;52709.13;5010433;28;20026;-65
2023/06/17 03:40:26;;;;;;;15.13;9.32;;;;;;;-144.47;100.00;52705.16;5010260;28;20029;-67
2023/06/17 03:42:54;;;;;;;19.52;9.75;;;;;;;-144.47;100.00;52677.34;5008951;28;20024;-67
2023/06/17 03:45:19;;;;;;;18.42;9.15;;;;;;;-144.47;100.00;52715.06;5008964;28;20026;-71
2023/06/17 03:47:45;;;;;;;17.25;9.13;;;;;;;-144.47;100.00;52673.38;5010195;28;20041;-63
2023/06/17 03:50:11;;;;;;;15.98;8.80;;;;;;;-144.47;100.00;52677.34;5005439;28;20022;-64
2023/06/17 03:52:36;;;;;;;22.75;9.65;;;;;;;-144.47;100.00;52705.16;5007532;28;20041;-67
2023/06/17 03:55:01;;;;;;;12.73;8.45;;;;;;;-144.47;100.00;52709.13;5009361;28;20030;-68
2023/06/17 03:57:27;;;;;;;11.50;8.00;;;;;;;-144.47;100.00;52695.22;5009989;28;20030;-67
2023/06/17 03:59:52;;;;;;;14.40;8.82;;;;;;;-144.47;100.00;52679.31;5010108;28;20022;-68
2023/06/17 04:02:17;;;;;;;14.55;8.40;;;;;;;-144.47;100.00;52707.13;5009920;28;20021;-68
2023/06/17 04:04:43;;;;;;;13.43;8.05;;;;;;;-144.47;100.00;52673.38;5009374;28;20021;-66
2023/06/17 04:07:08;;;;;;;12.60;8.02;;;;;;;-144.47;100.00;52685.28;5008296;28;20034;-68
2023/06/17 04:09:34;;;;;;;13.32;8.10;;;;;;;-144.47;100.00;52689.25;4992315;28;20021;-66
2023/06/17 04:12:01;;;;;;;12.55;7.38;;;;;;;-144.47;100.00;52667.41;5009875;28;20081;-64
2023/06/17 04:14:26;;;;;;;14.02;7.43;;;;;;;-144.47;100.00;52695.22;5009414;28;20091;-68
2023/06/17 04:16:53;;;;;;;13.23;8.05;;;;;;;-144.47;100.00;52669.41;5009674;28;20022;-69
2023/06/17 04:19:18;;;;;;;13.60;7.90;;;;;;;-144.47;100.00;52711.09;5009539;28;20140;-65
2023/06/17 04:21:44;;;;;;;11.80;7.65;;;;;;;-144.47;100.00;52705.16;5009484;28;20113;-63
2023/06/17 04:24:10;;;;;;;15.43;7.82;;;;;;;-144.47;100.00;52705.16;5009821;28;20030;-65
2023/06/17 04:26:35;;;;;;;18.02;8.43;;;;;;;-144.47;100.00;52707.13;5009415;28;20030;-68
2023/06/17 04:29:01;;;;;;;10.77;6.80;;;;;;;-144.47;100.00;52691.25;5009865;28;20024;-68
2023/06/17 04:31:30;;;;;;;12.25;7.18;;;;;;;-144.47;100.00;52689.25;5007948;28;20026;-67
2023/06/17 04:33:55;;;;;;;14.77;7.45;;;;;;;-144.47;100.00;52677.34;5009984;28;20033;-68
2023/06/17 04:36:23;;;;;;;13.20;7.63;;;;;;;-144.47;100.00;52677.34;5009426;28;20018;-66
2023/06/17 04:38:49;;;;;;;15.27;7.72;;;;;;;-144.47;100.00;52689.25;5008380;28;20018;-66
2023/06/17 04:41:16;;;;;;;14.98;8.02;;;;;;;-144.47;100.00;52687.28;5009782;28;20025;-66
2023/06/17 04:43:45;;;;;;;12.38;8.20;;;;;;;-144.47;100.00;52701.19;5009157;28;20025;-69
2023/06/17 04:46:12;;;;;;;15.32;8.90;;;;;;;-144.47;100.00;52703.16;5007973;28;20072;-65
2023/06/17 04:48:38;;;;;;;13.35;8.10;;;;;;;-144.47;100.00;52709.13;5010188;28;20030;-67
2023/06/17 04:51:05;;;;;;;18.20;8.20;;;;;;;-144.47;100.00;52683.31;5015992;23;20018;-65
2023/06/17 04:53:31;;;;;;;15.50;7.57;;;;;;;-144.47;100.00;52705.16;4989043;28;20034;-67
2023/06/17 04:55:56;;;;;;;15.20;8.52;;;;;;;-144.47;100.00;52701.19;4989578;28;20084;-68
2023/06/17 04:58:22;;;;;;;14.35;9.00;;;;;;;-144.47;100.00;52679.31;4990324;28;20026;-64
2023/06/17 05:00:47;;;;;;;14.10;8.30;;;;;;;-144.47;100.00;52709.13;4989391;28;20026;-69
2023/06/17 05:03:12;;;;;;;12.82;8.32;;;;;;;-144.47;100.00;52709.13;4970506;28;20058;-67
2023/06/17 05:05:38;;;;;;;13.07;7.43;;;;;;;-144.47;100.00;52711.09;4969600;28;20019;-68
2023/06/17 05:08:03;;;;;;;12.18;8.75;;;;;;;-144.47;100.00;52679.31;4972658;28;20612;-68
2023/06/17 05:10:28;;;;;;;12.70;8.13;;;;;;;-144.47;100.00;52697.19;4988843;28;20027;-65
2023/06/17 05:12:54;;;;;;;16.23;7.82;;;;;;;-144.47;100.00;52693.22;4974127;28;20444;-69
2023/06/17 05:15:19;;;;;;;15.85;7.97;;;;;;;-144.47;100.00;52673.38;4974060;28;20448;-68
2023/06/17 05:17:45;;;;;;;15.50;8.50;;;;;;;-144.47;100.00;52689.25;4989297;28;20034;-69
2023/06/17 05:20:10;;;;;;;14.23;7.55;;;;;;;-144.47;100.00;52685.28;4973538;28;20037;-65
2023/06/17 05:22:36;;;;;;;11.48;7.68;;;;;;;-144.47;100.00;52675.34;4973862;28;20055;-70
2023/06/17 05:25:01;;;;;;;16.55;7.20;;;;;;;-144.47;100.00;52685.28;4973389;28;20019;-68
2023/06/17 05:27:27;;;;;;;11.40;7.75;;;;;;;-144.47;100.00;52663.44;4974011;28;20081;-67
2023/06/17 05:29:52;;;;;;;15.02;7.65;;;;;;;-144.47;100.00;52705.16;4973039;28;20150;-69
2023/06/17 05:32:18;;;;;;;13.02;7.50;;;;;;;-144.47;100.00;52683.31;4973859;28;20025;-65
2023/06/17 05:34:43;;;;;;;11.07;7.28;;;;;;;-144.47;100.00;52669.41;4973103;28;20061;-68
2023/06/17 05:37:09;;;;;;;19.92;7.80;;;;;;;-144.47;99.30;52687.28;4973578;28;20019;-69
2023/06/17 05:39:34;;;;;;;13.25;7.97;;;;;;;-144.47;98.58;52693.22;4973656;28;20096;-68
2023/06/17 05:41:59;;;;;;;12.63;8.48;;;;;;;-144.47;96.81;52639.59;4974257;28;20038;-66
2023/06/17 05:44:25;;;;;;;20.67;8.05;;;;;;;-144.47;96.36;52685.28;4971366;28;20037;-68
2023/06/17 05:46:50;;;;;;;11.25;7.38;;;;;;;-144.47;95.77;52669.41;4973132;28;20023;-67
2023/06/17 05:49:16;;;;;;;15.68;7.60;;;;;;;-144.47;95.26;52677.34;4971267;28;20023;-69
2023/06/17 05:51:42;;;;;;;13.00;7.47;;;;;;;-144.47;94.73;52691.25;4966673;28;20041;-70
2023/06/17 05:54:07;;;;;;;16.98;7.85;;;;;;;-144.47;94.44;52695.22;4972956;28;20604;-68
2023/06/17 05:56:32;;;;;;;18.08;8.43;;;;;;;-144.47;93.88;52659.47;4973112;28;20088;-69
2023/06/17 05:58:58;;;;;;;19.27;11.00;;;;;;;-144.47;94.88;52663.44;4972787;28;20049;-69
2023/06/17 06:01:23;;;;;;;41.58;25.92;;;;;;;-144.47;93.83;52673.38;4972779;28;20038;-69
2023/06/17 06:03:48;;;;;;;71.40;42.72;;;;;;;-144.47;93.80;52659.47;4973227;28;20257;-64
2023/06/17 06:06:14;;;;;;;57.55;38.78;;;;;;;-144.47;95.25;52681.31;4972246;28;20035;-68
2023/06/17 06:08:39;;;;;;;38.40;25.58;;;;;;;-144.47;93.63;52701.19;4974743;28;20033;-67
2023/06/17 06:11:05;;;;;;;34.85;23.85;;;;;;;-144.47;94.45;52675.34;4973265;28;20027;-69
2023/06/17 06:13:30;;;;;;;32.35;19.95;;;;;;;-144.47;94.31;52657.47;4987896;28;20037;-68
2023/06/17 06:15:56;;;;;;;34.60;26.27;;;;;;;-144.47;92.99;52699.19;4972443;28;20102;-64
2023/06/17 06:18:21;;;;;;;27.42;18.40;;;;;;;-144.47;92.37;52681.31;4964113;28;20105;-67
2023/06/17 06:20:46;;;;;;;22.50;15.70;;;;;;;-144.47;92.24;52643.56;4967094;28;20496;-68
2023/06/17 06:23:12;;;;;;;37.22;19.80;;;;;;;-144.47;91.67;52681.31;4971959;28;20046;-67
2023/06/17 06:25:41;;;;;;;29.50;15.90;;;;;;;-144.47;91.67;52669.41;4971754;28;20030;-65
2023/06/17 06:28:06;;;;;;;27.23;14.90;;;;;;;-144.47;92.17;52681.31;4970594;28;20033;-66
2023/06/17 06:30:32;;;;;;;23.25;13.20;;;;;;;-144.47;92.31;52689.25;4962004;28;20605;-70
2023/06/17 06:32:58;;;;;;;18.77;10.73;;;;;;;-144.47;90.92;52693.22;4972216;28;20030;-68
2023/06/17 06:35:23;;;;;;;21.30;10.13;;;;;;;-144.47;90.95;52665.44;4972139;28;20033;-66
2023/06/17 06:37:49;;;;;;;15.90;9.23;;;;;;;-144.47;90.50;52669.41;4972851;28;20031;-68
2023/06/17 06:40:14;;;;;;;17.92;10.43;;;;;;;-144.47;90.51;52683.31;4972633;28;20501;-68
2023/06/17 06:42:40;;;;;;;25.08;10.90;;;;;;;-144.47;90.10;52689.25;4959511;28;20531;-68
2023/06/17 06:45:06;;;;;;;20.50;10.13;;;;;;;-144.47;91.05;52653.50;4970178;28;20046;-65
2023/06/17 06:47:32;;;;;;;18.23;10.80;;;;;;;-144.47;91.64;52669.41;4971568;28;20023;-69
2023/06/17 06:49:57;;;;;;;19.08;11.55;;;;;;;-144.47;92.16;52653.50;4971775;28;20794;-66
2023/06/17 06:52:23;;;;;;;19.40;11.10;;;;;;;-144.47;91.66;52663.44;4971321;28;20219;-67
2023/06/17 06:54:48;;;;;;;20.00;12.23;;;;;;;-144.47;91.64;52685.28;4970364;28;20050;-68
2023/06/17 06:57:13;;;;;;;20.00;11.88;;;;;;;-144.47;91.33;52689.25;4971193;28;20046;-71
2023/06/17 06:59:39;;;;;;;27.25;12.00;;;;;;;-144.47;91.66;52677.34;4971262;28;20070;-71
2023/06/17 07:02:05;;;;;;;20.88;11.93;;;;;;;-144.47;91.18;52677.34;4971619;28;20023;-66
2023/06/17 07:04:30;;;;;;;16.90;11.45;;;;;;;-144.47;90.74;52689.25;4970021;28;20062;-71
2023/06/17 07:06:56;;;;;;;23.52;12.70;;;;;;;-144.47;89.88;52655.50;4971634;28;20042;-70
2023/06/17 07:09:22;;;;;;;27.30;14.52;;;;;;;-144.47;90.02;52665.44;4971020;28;20031;-69
2023/06/17 07:11:47;;;;;;;21.33;11.02;;;;;;;-144.47;88.91;52649.53;4971340;28;20053;-68
2023/06/17 07:14:12;;;;;;;18.77;12.25;;;;;;;-144.47;87.80;52675.34;4968068;28;20046;-66
2023/06/17 07:16:38;;;;;;;23.05;14.20;;;;;;;-144.47;87.83;52645.56;4969192;28;20030;-67
2023/06/17 07:19:03;;;;;;;22.77;14.38;;;;;;;-144.47;88.36;52659.47;4972684;28;20031;-68
2023/06/17 07:21:28;;;;;;;20.27;11.60;;;;;;;-144.47;87.50;52661.44;4970117;28;20034;-66
2023/06/17 07:23:54;;;;;;;19.00;12.77;;;;;;;-144.47;87.64;52661.44;4971195;28;20058;-64
2023/06/17 07:26:20;;;;;;;21.83;14.35;;;;;;;-144.47;87.30;52697.19;4976471;28;20022;-68
2023/06/17 07:28:45;;;;;;;24.13;14.55;;;;;;;-144.47;86.87;52677.34;4976519;28;20039;-67
2023/06/17 07:31:12;;;;;;;21.33;13.82;;;;;;;-144.47;87.06;52675.34;4961239;28;20034;-66
2023/06/17 07:33:39;;;;;;;19.73;13.07;;;;;;;-144.47;85.67;52667.41;4963754;28;20053;-68
2023/06/17 07:36:05;;;;;;;22.65;14.18;;;;;;;-144.47;84.75;52683.31;4963234;28;20054;-68
2023/06/17 07:38:33;;;;;;;22.45;13.60;;;;;;;-144.47;83.47;52657.47;4965665;28;20458;-68
2023/06/17 07:41:01;;;;;;;20.05;13.30;;;;;;;-144.47;83.69;52689.25;4964827;28;20037;-69
2023/06/17 07:43:27;;;;;;;;;;;;;;;-144.47;83.80;52663.44;4971718;28;20117;-65
2023/06/17 07:45:52;;;;;;;19.23;12.85;;;;;;;-144.47;84.31;52689.25;4969987;28;20060;-69
2023/06/17 07:48:17;;;;;;;19.30;13.07;;;;;;;-144.47;85.31;52677.34;4969807;28;20062;-67
2023/06/17 07:50:43;;;;;;;19.83;12.35;;;;;;;-144.47;85.06;52685.28;4968567;28;20041;-68
2023/06/17 07:53:09;;;;;;;15.77;12.07;;;;;;;-144.47;84.16;52683.31;4969871;28;20030;-68
2023/06/17 07:55:35;;;;;;;21.83;12.25;;;;;;;-144.47;84.34;52681.31;4969352;28;20022;-68
2023/06/17 07:58:01;;;;;;;20.58;11.27;;;;;;;-144.47;85.13;52687.28;4969953;28;20054;-70
2023/06/17 08:00:26;;;;;;;21.88;12.77;;;;;;;-144.47;83.23;52681.31;4970223;28;20082;-68
2023/06/17 08:02:52;;;;;;;19.15;12.07;;;;;;;-144.47;82.84;52661.44;4970862;28;20050;-68
2023/06/17 08:05:17;;;;;;;17.20;11.30;;;;;;;-144.47;82.17;52685.28;4969220;28;20038;-68
2023/06/17 08:07:42;;;;;;;21.40;11.05;;;;;;;-144.47;82.77;52681.31;4968352;28;20078;-68
2023/06/17 08:10:08;;;;;;;18.90;11.57;;;;;;;-144.47;83.59;52653.50;4985323;28;20054;-68
2023/06/17 08:12:34;;;;;;;20.95;11.40;;;;;;;-144.47;84.06;52681.31;4970603;28;20027;-68
2023/06/17 08:14:59;;;;;;;23.45;12.98;;;;;;;-144.47;84.24;52681.31;4966718;28;20038;-65
2023/06/17 08:17:25;;;;;;;19.92;12.60;;;;;;;-144.47;83.84;52683.31;4968719;28;20579;-66
2023/06/17 08:19:50;;;;;;;19.85;11.50;;;;;;;-144.47;83.97;52673.38;4970196;28;20035;-67
2023/06/17 08:22:15;;;;;;;21.10;12.30;;;;;;;-144.47;82.81;52649.53;4970958;28;20072;-66
2023/06/17 08:24:41;;;;;;;18.33;11.90;;;;;;;-144.47;81.55;52685.28;4970380;28;20041;-67
2023/06/17 08:27:06;;;;;;;28.00;11.85;;;;;;;-144.47;81.49;52699.19;4971068;28;20039;-67
2023/06/17 08:29:32;;;;;;;18.95;11.23;;;;;;;-144.47;80.71;52665.44;4968225;28;20147;-68
2023/06/17 08:31:57;;;;;;;18.40;11.55;;;;;;;-144.47;80.02;52699.19;4967046;28;20039;-65
2023/06/17 08:34:23;;;;;;;22.30;11.48;;;;;;;-144.47;78.87;52663.44;4970224;28;20030;-66
2023/06/17 08:36:52;;;;;;;20.23;11.68;;;;;;;-144.47;78.40;52685.28;4970406;28;20393;-64
2023/06/17 08:39:17;;;;;;;18.05;10.90;;;;;;;-144.47;77.84;52673.38;4970577;28;20034;-65
2023/06/17 08:41:43;;;;;;;17.70;10.02;;;;;;;-144.47;78.45;52689.25;4973784;28;20113;-65
2023/06/17 08:44:13;;;;;;;20.88;10.75;;;;;;;-144.47;76.53;52661.44;4973476;28;20022;-66
2023/06/17 08:46:43;;;;;;;17.30;9.90;;;;;;;-144.47;74.88;52673.38;4974410;28;20034;-64
2023/06/17 08:49:11;;;;;;;22.98;11.20;;;;;;;-144.47;74.52;52705.16;4975022;28;20031;-66
2023/06/17 08:51:37;;;;;;;18.25;11.05;;;;;;;-144.47;75.25;52669.41;4973618;28;20182;-64
2023/06/17 08:54:03;;;;;;;25.95;9.88;;;;;;;-144.47;75.13;52687.28;4974191;28;20122;-65
2023/06/17 08:56:28;;;;;;;18.20;10.05;;;;;;;-144.47;73.32;52685.28;4971763;28;20508;-66
2023/06/17 08:58:55;;;;;;;17.73;9.95;;;;;;;-144.47;74.04;52697.19;4973283;28;20354;-65
2023/06/17 09:01:22;;;;;;;14.05;10.32;;;;;;;-144.47;74.71;52677.34;4969570;28;20118;-65
2023/06/17 09:03:50;;;;;;;19.20;10.63;;;;;;;-144.47;73.78;52697.19;4972921;28;20035;-67
2023/06/17 09:06:16;;;;;;;;;;;;;;;-144.47;73.36;52683.31;4973462;28;20029;-65
2023/06/17 09:08:42;;;;;;;16.65;10.35;;;;;;;-144.47;73.25;52677.34;4972074;28;19918;-66
2023/06/17 09:11:08;;;;;;;18.20;10.43;;;;;;;-144.47;73.61;52689.25;4973284;28;20037;-66
2023/06/17 09:13:33;;;;;;;16.42;10.45;;;;;;;-144.47;72.17;52697.19;4973933;28;20027;-68
2023/06/17 09:16:00;;;;;;;18.50;10.18;;;;;;;-144.47;71.63;52701.19;4973563;28;20118;-64
2023/06/17 09:18:25;;;;;;;20.33;10.25;;;;;;;-144.47;71.70;52709.13;4973518;28;20034;-66
2023/06/17 09:20:55;;;;;;;16.73;10.02;;;;;;;-144.47;70.98;52653.50;4973161;28;20113;-66
2023/06/17 09:23:21;;;;;;;14.50;9.18;;;;;;;-144.47;70.27;52671.38;4960480;28;20030;-66
2023/06/17 09:25:46;;;;;;;14.82;9.60;;;;;;;-144.47;69.71;52681.31;4972783;28;20058;-65
2023/06/17 09:28:12;;;;;;;18.27;9.13;;;;;;;-144.47;68.32;52705.16;4973146;28;20033;-65
2023/06/17 09:30:42;;;;;;;13.27;8.68;;;;;;;-144.47;67.34;52673.38;4962363;28;20484;-64
2023/06/17 09:33:17;;;;;;;14.95;8.10;;;;;;;-144.47;66.36;52659.47;4968014;28;20023;-68
2023/06/17 09:35:43;;;;;;;12.25;7.90;;;;;;;-144.47;67.35;52691.25;4971157;28;20038;-67
2023/06/17 09:38:09;;;;;;;16.58;8.80;;;;;;;-144.47;68.39;52657.47;4972439;28;20028;-65
2023/06/17 09:40:34;;;;;;;12.93;8.60;;;;;;;-144.47;68.24;52697.19;4972708;28;20473;-65
2023/06/17 09:43:01;;;;;;;20.13;8.75;;;;;;;-144.47;66.75;52685.28;4973238;28;20034;-67
2023/06/17 09:45:26;;;;;;;13.55;7.10;;;;;;;-144.47;64.38;52681.31;4972175;28;20419;-67
2023/06/17 09:47:53;;;;;;;11.23;6.80;;;;;;;-144.47;65.12;52679.31;4973133;28;20102;-67
2023/06/17 09:50:20;;;;;;;12.88;7.95;;;;;;;-144.47;65.41;52687.28;4969659;28;20207;-67
2023/06/17 09:52:52;;;;;;;19.48;7.78;;;;;;;-144.47;64.37;52697.19;4971768;28;20031;-64
2023/06/17 09:55:19;;;;;;;10.57;6.63;;;;;;;-144.47;64.00;52687.28;4960825;28;20031;-66
2023/06/17 09:57:45;;;;;;;10.38;7.30;;;;;;;-144.47;63.70;52673.38;4971777;28;20105;-67
2023/06/17 10:00:13;;;;;;;11.48;6.88;;;;;;;-144.47;63.08;52677.34;4972487;28;20038;-65
2023/06/17 10:02:39;;;;;;;11.65;7.05;;;;;;;-144.47;62.33;52709.13;4973693;28;20125;-65
2023/06/17 10:05:10;;;;;;;14.48;7.22;;;;;;;-144.47;60.98;52687.28;4972889;28;20193;-68
2023/06/17 10:07:39;;;;;;;14.85;7.32;;;;;;;-144.47;60.47;52691.25;4971892;28;20445;-68
2023/06/17 10:10:06;;;;;;;10.23;6.32;;;;;;;-144.47;60.67;52663.44;4972835;28;20038;-67
2023/06/17 10:12:33;;;;;;;12.13;6.90;;;;;;;-144.47;60.63;52707.13;4973340;28;20065;-67
2023/06/17 10:15:01;;;;;;;15.07;6.85;;;;;;;-144.47;62.56;52693.22;4970874;28;20117;-65
2023/06/17 10:17:28;;;;;;;11.80;7.07;;;;;;;-144.47;63.55;52665.44;4972220;28;20346;-68
2023/06/17 10:19:55;;;;;;;12.02;6.50;;;;;;;-144.47;64.67;52673.38;4971784;28;20260;-67
2023/06/17 10:22:22;;;;;;;13.35;7.28;;;;;;;-144.47;66.32;52687.28;4971279;28;20104;-67
2023/06/17 10:24:48;;;;;;;14.20;8.02;;;;;;;-144.47;65.05;52663.44;4971487;28;20500;-67
2023/06/17 10:27:13;;;;;;;14.85;6.80;;;;;;;-144.47;66.22;52659.47;4970732;28;20045;-68
2023/06/17 10:29:43;;;;;;;10.95;6.13;;;;;;;-144.47;65.63;52671.38;4970743;28;20082;-65
2023/06/17 10:32:24;;;;;;;10.05;5.88;;;;;;;-144.47;65.73;52687.28;4971557;28;20030;-66
2023/06/17 10:35:04;;;;;;;12.40;6.57;;;;;;;-144.47;63.46;52703.16;4971497;28;20105;-68
2023/06/17 10:37:30;;;;;;;10.82;5.95;;;;;;;-144.47;62.18;52709.13;4966308;28;20029;-69
2023/06/17 10:40:23;;;;;;;11.05;5.53;;;;;;;-144.47;60.45;52695.22;4972321;28;20030;-67
2023/06/17 10:43:03;;;;;;;11.00;5.25;;;;;;;-144.47;59.90;52709.13;4969732;28;20484;-68
2023/06/17 10:45:44;;;;;;;9.32;5.40;;;;;;;-144.47;59.38;52697.19;4971165;28;20027;-69
2023/06/17 10:48:19;;;;;;;12.50;5.90;;;;;;;-144.47;58.43;52701.19;4964741;28;20050;-68
2023/06/17 10:50:48;;;;;;;9.65;5.60;;;;;;;-144.47;58.34;52677.34;4970962;28;20030;-65
2023/06/17 10:53:16;;;;;;;13.00;6.32;;;;;;;-144.47;59.79;52691.25;5011171;23;20042;-70
2023/06/17 10:55:43;;;;;;;9.85;5.22;;;;;;;-144.47;59.39;52675.34;5008544;28;20395;-72
2023/06/17 10:58:09;;;;;;;9.95;5.65;;;;;;;-144.47;59.45;52665.44;5009544;28;20034;-71
2023/06/17 11:00:35;;;;;;;8.25;5.22;;;;;;;-144.47;58.45;52705.16;5008284;28;20117;-70
2023/06/17 11:03:00;;;;;;;10.77;5.63;;;;;;;-144.47;57.98;52705.16;5009614;28;20022;-73